Airfield :
LOGIN :

Register | Disclaimer

   EN    FR    IT 

 










Legend :    VFR   Marginal VFR   IFR   Intensive IFR   Very Intensive IFR
Visi :
Ceiling :
>= 8 km
>= 3000ft
5 to 8 km
1000 to 3000 ft
1500m to 5 km
500 to 1000 ft
800 to 1500m
200 to 500 ft
< 800m
< 200 ft
Symbols :   Thunderstorms  Fog  Heavy snow  Heavy precipitations  Wind > 20 kt
SIGMETs :     Misc.  Thunderstorms  Icing  Turbulence  Mountain Waves  Volcanic Ashes







- Airport Elevation : 650 ft
- IATA code : ZJI


LSZL - Locarno

CURRENT METAR :
  • 262250Z AUTO 00000KT 4000NDV -RA BR BKN044 BKN058 10/09 Q1008 RMK

EXPIRED METARs :
  • 262150Z AUTO VRB02KT 3900NDV -RA BR FEW022 BKN048 BKN055 10/09 Q1008 RMK
  • 262049Z AUTO 00000KT 4200NDV RA BR FEW021 BKN047 10/09 Q1008 RMK

TAF TAF LSZL
Valid from the 26 at 18:00 until the 27 at 03:00 UTC


261725Z 2618/2703 VRB03KT 9999 RA FEW010 BKN030
TEMPO 2618/2703 3000 +RA
PROB40
TEMPO 2618/2703 2500 SHRA SCT030TCU
No reported NOTAMs for that airfield.



MET'MAP, your aeronautical weather chart ! - Copyright ORBIFLY December 2007 - Disclaimer

ORBIFLY MET'MAP TEAM :

Programming & Development : Alexandra Zaïnal
Concept & Development : Baudouin d'Aumeries
Co-Development & Prog : Marc-Olivier Méhu
Technical & hardware support : Manuel Goepfert

Contact : metmap@orbifly.com




SOURCES & CREDITS :

   NOAA